sensor_id;sensor_type;location;lat;lon;timestamp;pressure;altitude;pressure_sealevel;temperature;humidity
36248;BME280;22287;50.824;5.644;2023-03-16T00:00:16;101025.19;;;5.78;63.58
36248;BME280;22287;50.824;5.644;2023-03-16T00:02:43;101024.03;;;6.26;63.03
36248;BME280;22287;50.824;5.644;2023-03-16T00:05:11;101023.81;;;6.01;63.77
36248;BME280;22287;50.824;5.644;2023-03-16T00:07:39;101015.69;;;5.88;64.43
36248;BME280;22287;50.824;5.644;2023-03-16T00:10:09;101017.22;;;6.06;63.56
36248;BME280;22287;50.824;5.644;2023-03-16T00:12:38;101020.84;;;6.05;63.89
36248;BME280;22287;50.824;5.644;2023-03-16T00:15:06;101016.50;;;5.88;63.83
36248;BME280;22287;50.824;5.644;2023-03-16T00:17:33;101018.09;;;6.07;64.18
36248;BME280;22287;50.824;5.644;2023-03-16T00:20:00;101014.06;;;6.14;64.19
36248;BME280;22287;50.824;5.644;2023-03-16T00:22:32;101021.16;;;6.15;63.07
36248;BME280;22287;50.824;5.644;2023-03-16T00:24:59;101021.91;;;6.17;63.70
36248;BME280;22287;50.824;5.644;2023-03-16T00:27:27;101012.72;;;6.07;63.48
36248;BME280;22287;50.824;5.644;2023-03-16T00:29:54;101015.47;;;5.91;63.79
36248;BME280;22287;50.824;5.644;2023-03-16T00:32:32;101013.41;;;5.80;64.54
36248;BME280;22287;50.824;5.644;2023-03-16T00:35:00;101002.53;;;5.98;63.86
36248;BME280;22287;50.824;5.644;2023-03-16T00:37:29;100991.53;;;6.16;63.38
36248;BME280;22287;50.824;5.644;2023-03-16T00:39:58;101000.63;;;6.00;63.84
36248;BME280;22287;50.824;5.644;2023-03-16T00:42:27;100998.88;;;5.84;64.04
36248;BME280;22287;50.824;5.644;2023-03-16T00:44:55;100985.31;;;5.87;64.15
36248;BME280;22287;50.824;5.644;2023-03-16T00:47:26;100983.00;;;5.96;64.19
36248;BME280;22287;50.824;5.644;2023-03-16T00:49:54;100983.41;;;6.32;63.19
36248;BME280;22287;50.824;5.644;2023-03-16T00:52:21;100981.66;;;6.17;63.62
36248;BME280;22287;50.824;5.644;2023-03-16T00:54:49;100975.44;;;5.88;64.10
36248;BME280;22287;50.824;5.644;2023-03-16T00:57:19;100983.03;;;6.10;63.54
36248;BME280;22287;50.824;5.644;2023-03-16T00:59:47;100976.41;;;6.15;63.25
36248;BME280;22287;50.824;5.644;2023-03-16T01:02:16;100973.13;;;6.24;63.08
36248;BME280;22287;50.824;5.644;2023-03-16T01:04:44;100972.66;;;6.18;62.74
36248;BME280;22287;50.824;5.644;2023-03-16T01:07:13;100962.63;;;6.07;63.33
36248;BME280;22287;50.824;5.644;2023-03-16T01:09:58;100960.56;;;6.11;62.70
36248;BME280;22287;50.824;5.644;2023-03-16T01:12:25;100964.91;;;5.99;63.71
36248;BME280;22287;50.824;5.644;2023-03-16T01:14:51;100947.16;;;6.11;62.88
36248;BME280;22287;50.824;5.644;2023-03-16T01:17:19;100939.22;;;6.09;62.82
36248;BME280;22287;50.824;5.644;2023-03-16T01:19:50;100948.22;;;6.22;62.44
36248;BME280;22287;50.824;5.644;2023-03-16T01:22:17;100949.00;;;6.10;62.67
36248;BME280;22287;50.824;5.644;2023-03-16T01:24:44;100938.72;;;6.17;61.99
36248;BME280;22287;50.824;5.644;2023-03-16T01:27:11;100932.03;;;6.10;62.39
36248;BME280;22287;50.824;5.644;2023-03-16T01:29:39;100927.59;;;6.23;62.18
36248;BME280;22287;50.824;5.644;2023-03-16T01:32:06;100923.16;;;6.36;61.48
36248;BME280;22287;50.824;5.644;2023-03-16T01:34:33;100918.88;;;6.33;61.80
36248;BME280;22287;50.824;5.644;2023-03-16T01:37:01;100915.34;;;6.19;63.27
36248;BME280;22287;50.824;5.644;2023-03-16T01:39:53;100909.31;;;6.15;62.42
36248;BME280;22287;50.824;5.644;2023-03-16T01:42:20;100905.28;;;6.22;63.18
36248;BME280;22287;50.824;5.644;2023-03-16T01:44:50;100904.00;;;6.28;61.95
36248;BME280;22287;50.824;5.644;2023-03-16T01:47:18;100904.69;;;6.31;61.67
36248;BME280;22287;50.824;5.644;2023-03-16T01:49:45;100905.22;;;6.10;62.20
36248;BME280;22287;50.824;5.644;2023-03-16T01:52:17;100909.22;;;6.03;62.58
36248;BME280;22287;50.824;5.644;2023-03-16T01:54:46;100893.47;;;6.25;61.54
36248;BME280;22287;50.824;5.644;2023-03-16T01:57:14;100896.44;;;6.34;61.24
36248;BME280;22287;50.824;5.644;2023-03-16T01:59:47;100893.84;;;6.33;61.50
36248;BME280;22287;50.824;5.644;2023-03-16T02:02:22;100899.50;;;6.28;61.54
36248;BME280;22287;50.824;5.644;2023-03-16T02:05:02;100888.56;;;6.45;61.67
36248;BME280;22287;50.824;5.644;2023-03-16T02:07:35;100886.16;;;6.41;61.52
36248;BME280;22287;50.824;5.644;2023-03-16T02:10:04;100891.56;;;6.27;62.15
36248;BME280;22287;50.824;5.644;2023-03-16T02:12:32;100889.50;;;6.44;61.38
36248;BME280;22287;50.824;5.644;2023-03-16T02:15:01;100892.41;;;6.27;61.54
36248;BME280;22287;50.824;5.644;2023-03-16T02:17:30;100886.03;;;6.16;62.36
36248;BME280;22287;50.824;5.644;2023-03-16T02:22:48;100890.00;;;5.96;62.77
36248;BME280;22287;50.824;5.644;2023-03-16T02:25:17;100881.63;;;6.15;62.45
36248;BME280;22287;50.824;5.644;2023-03-16T02:30:30;100883.25;;;6.44;60.68
36248;BME280;22287;50.824;5.644;2023-03-16T02:33:00;100869.31;;;6.25;61.63
36248;BME280;22287;50.824;5.644;2023-03-16T02:35:27;100875.22;;;6.44;60.36
36248;BME280;22287;50.824;5.644;2023-03-16T02:37:54;100870.59;;;6.19;61.16
36248;BME280;22287;50.824;5.644;2023-03-16T02:40:29;100868.91;;;6.45;60.23
36248;BME280;22287;50.824;5.644;2023-03-16T02:43:16;100871.81;;;6.28;61.31
36248;BME280;22287;50.824;5.644;2023-03-16T02:45:56;100873.78;;;6.38;61.55
36248;BME280;22287;50.824;5.644;2023-03-16T02:48:30;100873.56;;;6.15;61.94
36248;BME280;22287;50.824;5.644;2023-03-16T02:50:59;100868.97;;;6.17;62.20
36248;BME280;22287;50.824;5.644;2023-03-16T02:53:26;100876.63;;;6.23;61.89
36248;BME280;22287;50.824;5.644;2023-03-16T02:55:55;100880.16;;;6.23;62.07
36248;BME280;22287;50.824;5.644;2023-03-16T02:58:22;100879.28;;;6.64;60.92
36248;BME280;22287;50.824;5.644;2023-03-16T03:00:49;100882.03;;;6.89;61.20
36248;BME280;22287;50.824;5.644;2023-03-16T03:03:16;100877.41;;;6.78;60.62
36248;BME280;22287;50.824;5.644;2023-03-16T03:05:43;100878.50;;;6.88;60.51
36248;BME280;22287;50.824;5.644;2023-03-16T03:08:10;100875.25;;;6.83;60.81
36248;BME280;22287;50.824;5.644;2023-03-16T03:10:38;100871.78;;;6.42;62.42
36248;BME280;22287;50.824;5.644;2023-03-16T03:13:05;100866.00;;;6.21;62.91
36248;BME280;22287;50.824;5.644;2023-03-16T03:15:33;100866.59;;;6.12;62.68
36248;BME280;22287;50.824;5.644;2023-03-16T03:18:08;100862.72;;;6.16;62.85
36248;BME280;22287;50.824;5.644;2023-03-16T03:20:34;100860.41;;;6.24;62.76
36248;BME280;22287;50.824;5.644;2023-03-16T03:23:01;100857.34;;;6.16;63.04
36248;BME280;22287;50.824;5.644;2023-03-16T03:25:29;100850.50;;;6.39;62.22
36248;BME280;22287;50.824;5.644;2023-03-16T03:27:55;100848.56;;;6.41;61.80
36248;BME280;22287;50.824;5.644;2023-03-16T03:30:24;100846.91;;;6.26;63.21
36248;BME280;22287;50.824;5.644;2023-03-16T03:32:51;100849.94;;;6.34;62.82
36248;BME280;22287;50.824;5.644;2023-03-16T03:35:20;100849.59;;;6.53;62.07
36248;BME280;22287;50.824;5.644;2023-03-16T03:37:48;100850.97;;;6.45;62.42
36248;BME280;22287;50.824;5.644;2023-03-16T03:40:17;100850.16;;;6.97;61.46
36248;BME280;22287;50.824;5.644;2023-03-16T03:42:48;100841.66;;;6.51;63.03
36248;BME280;22287;50.824;5.644;2023-03-16T03:45:15;100855.50;;;6.31;62.77
36248;BME280;22287;50.824;5.644;2023-03-16T03:47:43;100851.28;;;6.80;61.59
36248;BME280;22287;50.824;5.644;2023-03-16T03:50:15;100846.16;;;6.50;62.46
36248;BME280;22287;50.824;5.644;2023-03-16T03:52:58;100846.66;;;6.82;62.15
36248;BME280;22287;50.824;5.644;2023-03-16T03:55:28;100855.78;;;6.40;63.17
36248;BME280;22287;50.824;5.644;2023-03-16T03:57:55;100848.00;;;6.36;63.29
36248;BME280;22287;50.824;5.644;2023-03-16T04:00:22;100847.66;;;6.28;62.67
36248;BME280;22287;50.824;5.644;2023-03-16T04:02:49;100852.06;;;6.29;63.00
36248;BME280;22287;50.824;5.644;2023-03-16T04:05:25;100843.41;;;6.65;61.32
36248;BME280;22287;50.824;5.644;2023-03-16T04:07:54;100836.69;;;6.45;62.36
36248;BME280;22287;50.824;5.644;2023-03-16T04:10:24;100852.72;;;6.32;62.59
36248;BME280;22287;50.824;5.644;2023-03-16T04:12:52;100841.19;;;6.44;62.26
36248;BME280;22287;50.824;5.644;2023-03-16T04:15:19;100833.34;;;6.68;61.28
36248;BME280;22287;50.824;5.644;2023-03-16T04:18:06;100832.41;;;6.82;61.26
36248;BME280;22287;50.824;5.644;2023-03-16T04:20:33;100830.78;;;6.79;60.86
36248;BME280;22287;50.824;5.644;2023-03-16T04:23:00;100823.88;;;6.75;60.77
36248;BME280;22287;50.824;5.644;2023-03-16T04:25:28;100826.84;;;6.58;62.07
36248;BME280;22287;50.824;5.644;2023-03-16T04:27:57;100819.38;;;6.88;60.80
36248;BME280;22287;50.824;5.644;2023-03-16T04:30:27;100820.75;;;6.69;61.64
36248;BME280;22287;50.824;5.644;2023-03-16T04:33:06;100825.47;;;6.65;61.46
36248;BME280;22287;50.824;5.644;2023-03-16T04:35:33;100819.31;;;6.63;61.74
36248;BME280;22287;50.824;5.644;2023-03-16T04:38:00;100815.22;;;6.58;61.81
36248;BME280;22287;50.824;5.644;2023-03-16T04:40:37;100814.13;;;6.47;62.16
36248;BME280;22287;50.824;5.644;2023-03-16T04:43:15;100816.50;;;6.52;61.80
36248;BME280;22287;50.824;5.644;2023-03-16T04:45:42;100810.72;;;6.58;61.57
36248;BME280;22287;50.824;5.644;2023-03-16T04:48:10;100802.31;;;6.89;60.76
36248;BME280;22287;50.824;5.644;2023-03-16T04:50:37;100812.47;;;6.72;61.87
36248;BME280;22287;50.824;5.644;2023-03-16T04:53:04;100808.69;;;6.62;62.07
36248;BME280;22287;50.824;5.644;2023-03-16T04:55:31;100810.44;;;6.36;62.56
36248;BME280;22287;50.824;5.644;2023-03-16T04:57:59;100810.13;;;6.14;63.83
36248;BME280;22287;50.824;5.644;2023-03-16T05:00:31;100806.75;;;6.64;62.36
36248;BME280;22287;50.824;5.644;2023-03-16T05:03:08;100800.81;;;6.46;62.19
36248;BME280;22287;50.824;5.644;2023-03-16T05:05:38;100805.53;;;6.42;62.42
36248;BME280;22287;50.824;5.644;2023-03-16T05:08:06;100794.31;;;6.36;62.54
36248;BME280;22287;50.824;5.644;2023-03-16T05:10:35;100797.47;;;6.42;62.35
36248;BME280;22287;50.824;5.644;2023-03-16T05:13:02;100804.13;;;6.10;63.50
36248;BME280;22287;50.824;5.644;2023-03-16T05:15:29;100798.53;;;6.40;62.88
36248;BME280;22287;50.824;5.644;2023-03-16T05:18:17;100799.00;;;6.20;63.40
36248;BME280;22287;50.824;5.644;2023-03-16T05:20:43;100798.06;;;6.60;61.70
36248;BME280;22287;50.824;5.644;2023-03-16T05:23:12;100794.47;;;6.86;61.41
36248;BME280;22287;50.824;5.644;2023-03-16T05:25:57;100797.84;;;6.63;61.45
36248;BME280;22287;50.824;5.644;2023-03-16T05:28:30;100801.06;;;6.56;62.56
36248;BME280;22287;50.824;5.644;2023-03-16T05:31:03;100788.56;;;6.55;62.15
36248;BME280;22287;50.824;5.644;2023-03-16T05:33:37;100792.69;;;6.60;62.04
36248;BME280;22287;50.824;5.644;2023-03-16T05:36:07;100788.31;;;6.72;61.35
36248;BME280;22287;50.824;5.644;2023-03-16T05:38:36;100788.34;;;6.45;62.58
36248;BME280;22287;50.824;5.644;2023-03-16T05:41:07;100784.00;;;6.30;63.03
36248;BME280;22287;50.824;5.644;2023-03-16T05:43:54;100783.44;;;6.52;62.46
36248;BME280;22287;50.824;5.644;2023-03-16T05:46:25;100782.00;;;6.85;61.25
36248;BME280;22287;50.824;5.644;2023-03-16T05:48:52;100774.06;;;6.84;61.25
36248;BME280;22287;50.824;5.644;2023-03-16T05:51:20;100774.25;;;6.93;61.28
36248;BME280;22287;50.824;5.644;2023-03-16T05:53:47;100773.88;;;7.12;59.97
36248;BME280;22287;50.824;5.644;2023-03-16T05:56:26;100769.97;;;6.91;60.75
36248;BME280;22287;50.824;5.644;2023-03-16T05:58:54;100777.81;;;6.94;60.28
36248;BME280;22287;50.824;5.644;2023-03-16T06:01:23;100767.84;;;7.08;60.23
36248;BME280;22287;50.824;5.644;2023-03-16T06:03:51;100764.63;;;7.03;60.23
36248;BME280;22287;50.824;5.644;2023-03-16T06:06:41;100769.97;;;7.16;59.14
36248;BME280;22287;50.824;5.644;2023-03-16T06:09:19;100762.44;;;7.21;59.93
36248;BME280;22287;50.824;5.644;2023-03-16T06:11:46;100765.13;;;6.71;61.29
36248;BME280;22287;50.824;5.644;2023-03-16T06:14:15;100769.28;;;6.62;61.64
36248;BME280;22287;50.824;5.644;2023-03-16T06:16:42;100774.47;;;6.78;61.76
36248;BME280;22287;50.824;5.644;2023-03-16T06:19:09;100768.63;;;6.71;61.77
36248;BME280;22287;50.824;5.644;2023-03-16T06:21:36;100772.84;;;6.88;61.64
36248;BME280;22287;50.824;5.644;2023-03-16T06:24:22;100768.75;;;6.82;61.75
36248;BME280;22287;50.824;5.644;2023-03-16T06:26:50;100768.47;;;6.99;61.02
36248;BME280;22287;50.824;5.644;2023-03-16T06:29:18;100772.75;;;7.02;61.83
36248;BME280;22287;50.824;5.644;2023-03-16T06:31:45;100775.13;;;6.81;61.84
36248;BME280;22287;50.824;5.644;2023-03-16T06:34:13;100778.06;;;7.03;61.79
36248;BME280;22287;50.824;5.644;2023-03-16T06:36:40;100775.53;;;6.88;62.22
36248;BME280;22287;50.824;5.644;2023-03-16T06:39:10;100763.06;;;6.74;62.17
36248;BME280;22287;50.824;5.644;2023-03-16T06:41:44;100762.22;;;6.86;61.08
36248;BME280;22287;50.824;5.644;2023-03-16T06:44:14;100761.81;;;7.05;61.17
36248;BME280;22287;50.824;5.644;2023-03-16T06:46:51;100751.81;;;7.07;60.84
36248;BME280;22287;50.824;5.644;2023-03-16T06:49:18;100756.53;;;6.91;61.65
36248;BME280;22287;50.824;5.644;2023-03-16T06:51:45;100758.59;;;6.87;61.97
36248;BME280;22287;50.824;5.644;2023-03-16T06:54:12;100752.88;;;6.92;61.62
36248;BME280;22287;50.824;5.644;2023-03-16T06:56:39;100751.28;;;6.89;62.64
36248;BME280;22287;50.824;5.644;2023-03-16T06:59:06;100747.59;;;6.90;62.16
36248;BME280;22287;50.824;5.644;2023-03-16T07:01:35;100756.22;;;7.08;62.25
36248;BME280;22287;50.824;5.644;2023-03-16T07:04:02;100750.19;;;7.04;62.04
36248;BME280;22287;50.824;5.644;2023-03-16T07:06:31;100744.38;;;7.10;61.82
36248;BME280;22287;50.824;5.644;2023-03-16T07:08:58;100762.44;;;7.21;61.96
36248;BME280;22287;50.824;5.644;2023-03-16T07:11:30;100749.78;;;7.23;61.88
36248;BME280;22287;50.824;5.644;2023-03-16T07:13:57;100744.81;;;7.30;60.84
36248;BME280;22287;50.824;5.644;2023-03-16T07:16:26;100747.00;;;7.12;61.86
36248;BME280;22287;50.824;5.644;2023-03-16T07:18:56;100734.72;;;7.21;61.09
36248;BME280;22287;50.824;5.644;2023-03-16T07:21:23;100746.88;;;7.14;61.34
36248;BME280;22287;50.824;5.644;2023-03-16T07:23:51;100747.53;;;7.17;61.47
36248;BME280;22287;50.824;5.644;2023-03-16T07:26:22;100757.47;;;7.53;60.55
36248;BME280;22287;50.824;5.644;2023-03-16T07:28:53;100765.03;;;7.23;61.29
36248;BME280;22287;50.824;5.644;2023-03-16T07:31:24;100758.78;;;7.47;60.91
36248;BME280;22287;50.824;5.644;2023-03-16T07:33:52;100750.59;;;7.49;60.58
36248;BME280;22287;50.824;5.644;2023-03-16T07:36:27;100747.38;;;7.44;61.05
36248;BME280;22287;50.824;5.644;2023-03-16T07:38:58;100750.19;;;7.42;61.20
36248;BME280;22287;50.824;5.644;2023-03-16T07:41:25;100751.56;;;7.48;60.70
36248;BME280;22287;50.824;5.644;2023-03-16T07:43:52;100751.22;;;7.52;60.53
36248;BME280;22287;50.824;5.644;2023-03-16T07:46:23;100747.50;;;7.42;60.49
36248;BME280;22287;50.824;5.644;2023-03-16T07:48:50;100748.53;;;7.52;60.46
36248;BME280;22287;50.824;5.644;2023-03-16T07:51:17;100740.28;;;7.43;61.06
36248;BME280;22287;50.824;5.644;2023-03-16T07:53:47;100749.28;;;7.54;59.92
36248;BME280;22287;50.824;5.644;2023-03-16T07:56:23;100748.19;;;7.57;59.92
36248;BME280;22287;50.824;5.644;2023-03-16T07:58:53;100733.09;;;7.80;59.17
36248;BME280;22287;50.824;5.644;2023-03-16T08:01:21;100741.78;;;7.83;58.98
36248;BME280;22287;50.824;5.644;2023-03-16T08:03:48;100748.38;;;7.79;59.07
36248;BME280;22287;50.824;5.644;2023-03-16T08:06:15;100748.19;;;7.69;59.29
36248;BME280;22287;50.824;5.644;2023-03-16T08:08:42;100734.84;;;7.68;59.37
36248;BME280;22287;50.824;5.644;2023-03-16T08:11:16;100733.00;;;7.68;59.14
36248;BME280;22287;50.824;5.644;2023-03-16T08:13:54;100745.28;;;7.96;57.94
36248;BME280;22287;50.824;5.644;2023-03-16T08:16:26;100739.25;;;8.05;58.06
36248;BME280;22287;50.824;5.644;2023-03-16T08:18:57;100735.34;;;8.09;57.97
36248;BME280;22287;50.824;5.644;2023-03-16T08:21:25;100740.44;;;8.01;57.84
36248;BME280;22287;50.824;5.644;2023-03-16T08:23:52;100743.06;;;7.90;58.74
36248;BME280;22287;50.824;5.644;2023-03-16T08:26:21;100734.25;;;8.12;58.04
36248;BME280;22287;50.824;5.644;2023-03-16T08:28:52;100730.88;;;8.21;57.81
36248;BME280;22287;50.824;5.644;2023-03-16T08:31:21;100730.66;;;8.00;58.03
36248;BME280;22287;50.824;5.644;2023-03-16T08:33:58;100731.63;;;7.99;58.31
36248;BME280;22287;50.824;5.644;2023-03-16T08:36:27;100729.34;;;8.30;57.51
36248;BME280;22287;50.824;5.644;2023-03-16T08:38:56;100726.44;;;8.09;58.04
36248;BME280;22287;50.824;5.644;2023-03-16T08:41:37;100728.47;;;8.05;57.63
36248;BME280;22287;50.824;5.644;2023-03-16T08:44:13;100730.22;;;8.17;57.83
36248;BME280;22287;50.824;5.644;2023-03-16T08:46:40;100718.97;;;8.12;57.72
36248;BME280;22287;50.824;5.644;2023-03-16T08:49:08;100719.84;;;8.37;56.92
36248;BME280;22287;50.824;5.644;2023-03-16T08:51:35;100728.91;;;8.23;56.89
36248;BME280;22287;50.824;5.644;2023-03-16T08:54:02;100716.34;;;8.47;56.56
36248;BME280;22287;50.824;5.644;2023-03-16T08:56:29;100723.97;;;8.64;56.44
36248;BME280;22287;50.824;5.644;2023-03-16T08:58:56;100716.31;;;8.82;56.06
36248;BME280;22287;50.824;5.644;2023-03-16T09:01:23;100718.28;;;8.91;55.85
36248;BME280;22287;50.824;5.644;2023-03-16T09:03:51;100716.06;;;8.85;55.21
36248;BME280;22287;50.824;5.644;2023-03-16T09:06:18;100719.53;;;9.09;55.75
36248;BME280;22287;50.824;5.644;2023-03-16T09:08:45;100712.31;;;9.32;55.22
36248;BME280;22287;50.824;5.644;2023-03-16T09:11:15;100709.00;;;9.28;55.36
36248;BME280;22287;50.824;5.644;2023-03-16T09:13:43;100706.66;;;9.24;54.61
36248;BME280;22287;50.824;5.644;2023-03-16T09:16:12;100711.91;;;9.14;54.67
36248;BME280;22287;50.824;5.644;2023-03-16T09:18:39;100708.00;;;9.18;55.20
36248;BME280;22287;50.824;5.644;2023-03-16T09:21:07;100699.94;;;9.40;54.43
36248;BME280;22287;50.824;5.644;2023-03-16T09:23:35;100707.75;;;9.55;54.46
36248;BME280;22287;50.824;5.644;2023-03-16T09:26:04;100701.09;;;9.81;54.78
36248;BME280;22287;50.824;5.644;2023-03-16T09:28:34;100710.47;;;9.55;54.54
36248;BME280;22287;50.824;5.644;2023-03-16T09:31:01;100702.63;;;9.52;54.58
36248;BME280;22287;50.824;5.644;2023-03-16T09:33:31;100701.34;;;9.78;54.55
36248;BME280;22287;50.824;5.644;2023-03-16T09:35:59;100708.28;;;9.91;54.86
36248;BME280;22287;50.824;5.644;2023-03-16T09:38:27;100702.38;;;9.97;55.23
36248;BME280;22287;50.824;5.644;2023-03-16T09:44:20;100698.88;;;10.29;54.05
36248;BME280;22287;50.824;5.644;2023-03-16T09:46:50;100701.03;;;10.67;53.13
36248;BME280;22287;50.824;5.644;2023-03-16T09:49:19;100691.84;;;10.58;53.49
36248;BME280;22287;50.824;5.644;2023-03-16T09:51:54;100693.28;;;11.03;52.12
36248;BME280;22287;50.824;5.644;2023-03-16T09:54:37;100690.59;;;10.83;52.15
36248;BME280;22287;50.824;5.644;2023-03-16T09:57:16;100691.75;;;11.10;51.66
36248;BME280;22287;50.824;5.644;2023-03-16T09:59:46;100691.44;;;11.34;50.84
36248;BME280;22287;50.824;5.644;2023-03-16T10:02:39;100686.00;;;11.64;51.23
36248;BME280;22287;50.824;5.644;2023-03-16T10:05:20;100683.84;;;11.58;50.47
36248;BME280;22287;50.824;5.644;2023-03-16T10:15:58;100670.84;;;11.43;49.75
36248;BME280;22287;50.824;5.644;2023-03-16T10:18:38;100669.06;;;11.62;50.47
36248;BME280;22287;50.824;5.644;2023-03-16T10:21:14;100673.09;;;11.77;49.91
36248;BME280;22287;50.824;5.644;2023-03-16T10:23:44;100670.13;;;11.81;49.63
36248;BME280;22287;50.824;5.644;2023-03-16T10:26:20;100656.16;;;11.85;50.46
36248;BME280;22287;50.824;5.644;2023-03-16T10:28:49;100660.41;;;11.88;49.08
36248;BME280;22287;50.824;5.644;2023-03-16T10:31:27;100650.75;;;12.04;47.86
36248;BME280;22287;50.824;5.644;2023-03-16T10:34:01;100643.06;;;12.09;47.56
36248;BME280;22287;50.824;5.644;2023-03-16T10:36:33;100641.03;;;12.40;48.50
36248;BME280;22287;50.824;5.644;2023-03-16T10:39:04;100641.66;;;12.15;49.61
36248;BME280;22287;50.824;5.644;2023-03-16T10:41:43;100640.50;;;12.08;49.34
36248;BME280;22287;50.824;5.644;2023-03-16T10:44:31;100637.22;;;12.14;49.08
36248;BME280;22287;50.824;5.644;2023-03-16T10:47:05;100634.34;;;12.44;48.60
36248;BME280;22287;50.824;5.644;2023-03-16T10:52:38;100639.56;;;12.74;48.84
36248;BME280;22287;50.824;5.644;2023-03-16T10:55:16;100634.34;;;12.54;50.07
36248;BME280;22287;50.824;5.644;2023-03-16T10:57:53;100636.13;;;12.82;48.38
36248;BME280;22287;50.824;5.644;2023-03-16T11:02:57;100633.06;;;13.14;48.97
36248;BME280;22287;50.824;5.644;2023-03-16T11:10:43;100626.97;;;13.57;49.95
36248;BME280;22287;50.824;5.644;2023-03-16T11:13:21;100627.44;;;13.97;47.25
36248;BME280;22287;50.824;5.644;2023-03-16T11:15:55;100622.38;;;14.02;44.85
36248;BME280;22287;50.824;5.644;2023-03-16T11:18:31;100610.56;;;13.31;45.97
36248;BME280;22287;50.824;5.644;2023-03-16T11:21:07;100609.34;;;13.16;45.67
36248;BME280;22287;50.824;5.644;2023-03-16T11:23:41;100609.81;;;13.56;49.38
36248;BME280;22287;50.824;5.644;2023-03-16T11:26:18;100608.91;;;13.47;49.17
36248;BME280;22287;50.824;5.644;2023-03-16T11:28:51;100600.38;;;13.60;48.92
36248;BME280;22287;50.824;5.644;2023-03-16T11:31:49;100593.44;;;13.75;46.60
36248;BME280;22287;50.824;5.644;2023-03-16T11:34:27;100596.38;;;14.35;48.90
36248;BME280;22287;50.824;5.644;2023-03-16T11:40:06;100580.97;;;14.26;45.12
36248;BME280;22287;50.824;5.644;2023-03-16T11:42:50;100573.16;;;14.40;44.52
36248;BME280;22287;50.824;5.644;2023-03-16T11:45:40;100573.47;;;13.67;45.74
36248;BME280;22287;50.824;5.644;2023-03-16T11:48:21;100564.25;;;13.77;45.19
36248;BME280;22287;50.824;5.644;2023-03-16T11:51:28;100566.06;;;13.59;44.52
36248;BME280;22287;50.824;5.644;2023-03-16T11:57:12;100560.75;;;13.22;46.50
36248;BME280;22287;50.824;5.644;2023-03-16T12:05:45;100560.34;;;13.97;44.75
36248;BME280;22287;50.824;5.644;2023-03-16T12:10:56;100541.16;;;14.17;44.76
36248;BME280;22287;50.824;5.644;2023-03-16T12:14:04;100542.22;;;14.24;45.03
36248;BME280;22287;50.824;5.644;2023-03-16T12:16:56;100537.31;;;14.45;45.42
36248;BME280;22287;50.824;5.644;2023-03-16T12:25:02;100527.47;;;13.83;45.58
36248;BME280;22287;50.824;5.644;2023-03-16T12:27:35;100521.16;;;13.82;44.93
36248;BME280;22287;50.824;5.644;2023-03-16T12:32:47;100525.69;;;14.35;45.09
36248;BME280;22287;50.824;5.644;2023-03-16T12:43:59;100497.75;;;15.34;42.99
36248;BME280;22287;50.824;5.644;2023-03-16T12:46:50;100496.34;;;15.14;43.70
36248;BME280;22287;50.824;5.644;2023-03-16T12:49:23;100490.41;;;14.43;44.53
36248;BME280;22287;50.824;5.644;2023-03-16T12:52:03;100487.31;;;14.20;44.10
36248;BME280;22287;50.824;5.644;2023-03-16T12:54:30;100480.00;;;13.95;45.05
36248;BME280;22287;50.824;5.644;2023-03-16T12:57:06;100483.78;;;14.45;44.54
36248;BME280;22287;50.824;5.644;2023-03-16T12:59:39;100482.50;;;14.57;43.84
36248;BME280;22287;50.824;5.644;2023-03-16T13:02:29;100468.41;;;15.04;41.55
36248;BME280;22287;50.824;5.644;2023-03-16T13:05:00;100469.25;;;15.46;42.57
36248;BME280;22287;50.824;5.644;2023-03-16T13:07:30;100468.22;;;15.55;40.91
36248;BME280;22287;50.824;5.644;2023-03-16T13:10:07;100464.63;;;15.47;42.82
36248;BME280;22287;50.824;5.644;2023-03-16T13:12:36;100458.00;;;15.57;42.64
36248;BME280;22287;50.824;5.644;2023-03-16T13:17:47;100451.81;;;14.81;43.62
36248;BME280;22287;50.824;5.644;2023-03-16T13:20:25;100449.13;;;14.47;43.92
36248;BME280;22287;50.824;5.644;2023-03-16T13:26:01;100424.63;;;14.81;42.93
36248;BME280;22287;50.824;5.644;2023-03-16T13:28:31;100420.06;;;14.90;42.31
36248;BME280;22287;50.824;5.644;2023-03-16T13:30:59;100419.56;;;14.94;42.86
36248;BME280;22287;50.824;5.644;2023-03-16T13:33:29;100423.84;;;15.05;42.99
36248;BME280;22287;50.824;5.644;2023-03-16T13:35:58;100420.91;;;14.82;43.68
36248;BME280;22287;50.824;5.644;2023-03-16T13:38:26;100420.13;;;14.64;42.32
36248;BME280;22287;50.824;5.644;2023-03-16T13:40:57;100409.44;;;14.62;42.33
36248;BME280;22287;50.824;5.644;2023-03-16T13:43:28;100404.91;;;14.79;41.77
36248;BME280;22287;50.824;5.644;2023-03-16T13:45:58;100390.91;;;14.58;42.38
36248;BME280;22287;50.824;5.644;2023-03-16T13:48:25;100398.94;;;14.76;42.20
36248;BME280;22287;50.824;5.644;2023-03-16T13:50:55;100393.47;;;14.34;43.93
36248;BME280;22287;50.824;5.644;2023-03-16T13:53:30;100394.97;;;14.62;43.20
36248;BME280;22287;50.824;5.644;2023-03-16T13:55:59;100384.13;;;14.02;44.04
36248;BME280;22287;50.824;5.644;2023-03-16T13:58:30;100381.63;;;14.17;44.53
36248;BME280;22287;50.824;5.644;2023-03-16T14:01:02;100377.19;;;14.42;44.67
36248;BME280;22287;50.824;5.644;2023-03-16T14:03:37;100370.16;;;14.65;44.80
36248;BME280;22287;50.824;5.644;2023-03-16T14:06:06;100377.91;;;15.02;43.55
36248;BME280;22287;50.824;5.644;2023-03-16T14:08:33;100376.31;;;14.83;43.89
36248;BME280;22287;50.824;5.644;2023-03-16T14:11:01;100363.47;;;15.42;43.32
36248;BME280;22287;50.824;5.644;2023-03-16T14:16:09;100357.88;;;15.35;43.12
36248;BME280;22287;50.824;5.644;2023-03-16T14:18:42;100356.84;;;15.28;42.93
36248;BME280;22287;50.824;5.644;2023-03-16T14:21:25;100355.28;;;15.98;43.55
36248;BME280;22287;50.824;5.644;2023-03-16T14:23:56;100346.47;;;15.15;42.58
36248;BME280;22287;50.824;5.644;2023-03-16T14:26:24;100348.13;;;14.92;41.70